Main page
METAR-TAF:

METAR-TAF

Airports :

Western Carolina Regional Airport

Andrews, North Carolina, United States

latitude: 35-11-42N, longitude: 083-51-49W, elevation: 1696 ft

Current weather observation

The report was made 14 minutes ago, at 10:35 UTC
Calm wind
Temperature 28°F
Humidity 93%
Pressure 30.28 in. Hg
Visibility: 10 miles
Clear sky

METAR: KRHP 231035Z AUTO 00000KT 10SM CLR M02/M03 A3028 RMK AO2 T10251030

Time: 05:49 (10:49 UTC)


TAF: missing

Weather observations and forecasts of more than 4000 airports (METAR and TAF reports).

The available stations are represented by yellow and red dots on the map.

Hover mouse over dot to see the name of the station.

Then click to see weather observations and forecasts.

To change the map : click on the green buttons with a black cross to zoom in, on the green button with a dash to zoom out, or on the green arrows for adjacent maps.


METAR-TAF: